sensor_id;sensor_type;location;lat;lon;timestamp;P1;durP1;ratioP1;P2;durP2;ratioP2
19187;SDS011;9726;52.198;8.792;2024-01-15T00:01:35;30.97;;;15.10;;
19187;SDS011;9726;52.198;8.792;2024-01-15T00:04:03;35.53;;;14.30;;
19187;SDS011;9726;52.198;8.792;2024-01-15T00:06:31;38.17;;;15.03;;
19187;SDS011;9726;52.198;8.792;2024-01-15T00:09:00;27.83;;;12.77;;
19187;SDS011;9726;52.198;8.792;2024-01-15T00:11:27;34.83;;;12.17;;
19187;SDS011;9726;52.198;8.792;2024-01-15T00:13:55;34.97;;;12.70;;
19187;SDS011;9726;52.198;8.792;2024-01-15T00:16:22;28.50;;;12.67;;
19187;SDS011;9726;52.198;8.792;2024-01-15T00:18:50;30.30;;;13.47;;
19187;SDS011;9726;52.198;8.792;2024-01-15T00:21:17;32.57;;;16.17;;
19187;SDS011;9726;52.198;8.792;2024-01-15T00:23:45;32.57;;;13.43;;
19187;SDS011;9726;52.198;8.792;2024-01-15T00:26:12;23.63;;;11.20;;
19187;SDS011;9726;52.198;8.792;2024-01-15T00:28:40;30.40;;;11.80;;
19187;SDS011;9726;52.198;8.792;2024-01-15T00:31:07;40.47;;;13.33;;
19187;SDS011;9726;52.198;8.792;2024-01-15T00:33:36;22.23;;;9.00;;
19187;SDS011;9726;52.198;8.792;2024-01-15T00:36:03;26.63;;;11.80;;
19187;SDS011;9726;52.198;8.792;2024-01-15T00:38:31;27.50;;;11.83;;
19187;SDS011;9726;52.198;8.792;2024-01-15T00:40:58;35.30;;;14.10;;
19187;SDS011;9726;52.198;8.792;2024-01-15T00:43:26;27.03;;;12.47;;
19187;SDS011;9726;52.198;8.792;2024-01-15T00:45:53;23.97;;;11.17;;
19187;SDS011;9726;52.198;8.792;2024-01-15T00:48:21;26.67;;;10.37;;
19187;SDS011;9726;52.198;8.792;2024-01-15T00:50:48;28.53;;;11.37;;
19187;SDS011;9726;52.198;8.792;2024-01-15T00:53:16;27.03;;;11.50;;
19187;SDS011;9726;52.198;8.792;2024-01-15T00:55:43;29.07;;;11.60;;
19187;SDS011;9726;52.198;8.792;2024-01-15T00:58:11;25.43;;;11.20;;
19187;SDS011;9726;52.198;8.792;2024-01-15T01:00:38;22.00;;;10.00;;
19187;SDS011;9726;52.198;8.792;2024-01-15T01:03:06;25.27;;;11.90;;
19187;SDS011;9726;52.198;8.792;2024-01-15T01:05:34;23.70;;;10.33;;
19187;SDS011;9726;52.198;8.792;2024-01-15T01:08:01;19.60;;;9.43;;
19187;SDS011;9726;52.198;8.792;2024-01-15T01:10:29;24.70;;;10.53;;
19187;SDS011;9726;52.198;8.792;2024-01-15T01:12:57;16.00;;;7.60;;
19187;SDS011;9726;52.198;8.792;2024-01-15T01:15:24;29.93;;;10.10;;
19187;SDS011;9726;52.198;8.792;2024-01-15T01:17:51;22.73;;;8.57;;
19187;SDS011;9726;52.198;8.792;2024-01-15T01:20:19;16.80;;;8.03;;
19187;SDS011;9726;52.198;8.792;2024-01-15T01:22:47;31.50;;;7.77;;
19187;SDS011;9726;52.198;8.792;2024-01-15T01:25:14;17.07;;;7.77;;
19187;SDS011;9726;52.198;8.792;2024-01-15T01:27:42;18.90;;;6.77;;
19187;SDS011;9726;52.198;8.792;2024-01-15T01:30:10;24.10;;;5.97;;
19187;SDS011;9726;52.198;8.792;2024-01-15T01:32:37;18.53;;;4.80;;
19187;SDS011;9726;52.198;8.792;2024-01-15T01:35:05;17.67;;;6.13;;
19187;SDS011;9726;52.198;8.792;2024-01-15T01:37:32;9.17;;;4.63;;
19187;SDS011;9726;52.198;8.792;2024-01-15T01:40:00;21.00;;;5.90;;
19187;SDS011;9726;52.198;8.792;2024-01-15T01:42:28;23.00;;;8.83;;
19187;SDS011;9726;52.198;8.792;2024-01-15T01:44:55;21.23;;;6.20;;
19187;SDS011;9726;52.198;8.792;2024-01-15T01:47:23;22.23;;;6.20;;
19187;SDS011;9726;52.198;8.792;2024-01-15T01:49:53;21.27;;;5.80;;
19187;SDS011;9726;52.198;8.792;2024-01-15T01:52:21;19.57;;;5.10;;
19187;SDS011;9726;52.198;8.792;2024-01-15T01:54:48;19.87;;;5.33;;
19187;SDS011;9726;52.198;8.792;2024-01-15T01:57:16;11.83;;;4.50;;
19187;SDS011;9726;52.198;8.792;2024-01-15T01:59:44;21.50;;;3.73;;
19187;SDS011;9726;52.198;8.792;2024-01-15T02:02:13;8.93;;;3.53;;
19187;SDS011;9726;52.198;8.792;2024-01-15T02:04:40;17.37;;;4.03;;
19187;SDS011;9726;52.198;8.792;2024-01-15T02:07:08;15.90;;;4.30;;
19187;SDS011;9726;52.198;8.792;2024-01-15T02:09:36;26.53;;;4.40;;
19187;SDS011;9726;52.198;8.792;2024-01-15T02:12:04;10.23;;;3.00;;
19187;SDS011;9726;52.198;8.792;2024-01-15T02:14:32;14.17;;;4.40;;
19187;SDS011;9726;52.198;8.792;2024-01-15T02:16:59;19.07;;;3.37;;
19187;SDS011;9726;52.198;8.792;2024-01-15T02:19:27;17.47;;;5.50;;
19187;SDS011;9726;52.198;8.792;2024-01-15T02:21:55;16.47;;;4.47;;
19187;SDS011;9726;52.198;8.792;2024-01-15T02:24:22;10.37;;;4.43;;
19187;SDS011;9726;52.198;8.792;2024-01-15T02:26:50;15.47;;;5.10;;
19187;SDS011;9726;52.198;8.792;2024-01-15T02:29:17;8.33;;;2.90;;
19187;SDS011;9726;52.198;8.792;2024-01-15T02:31:45;18.00;;;4.23;;
19187;SDS011;9726;52.198;8.792;2024-01-15T02:34:13;17.00;;;3.77;;
19187;SDS011;9726;52.198;8.792;2024-01-15T02:36:40;10.60;;;3.17;;
19187;SDS011;9726;52.198;8.792;2024-01-15T02:39:08;32.97;;;5.47;;
19187;SDS011;9726;52.198;8.792;2024-01-15T02:41:35;9.27;;;3.53;;
19187;SDS011;9726;52.198;8.792;2024-01-15T02:44:03;18.03;;;4.27;;
19187;SDS011;9726;52.198;8.792;2024-01-15T02:46:31;14.63;;;3.57;;
19187;SDS011;9726;52.198;8.792;2024-01-15T02:48:58;11.63;;;2.90;;
19187;SDS011;9726;52.198;8.792;2024-01-15T02:51:26;15.00;;;3.50;;
19187;SDS011;9726;52.198;8.792;2024-01-15T02:53:53;15.03;;;3.10;;
19187;SDS011;9726;52.198;8.792;2024-01-15T02:56:21;8.07;;;2.70;;
19187;SDS011;9726;52.198;8.792;2024-01-15T02:58:48;15.30;;;3.23;;
19187;SDS011;9726;52.198;8.792;2024-01-15T03:01:18;11.37;;;2.37;;
19187;SDS011;9726;52.198;8.792;2024-01-15T03:03:45;13.43;;;3.23;;
19187;SDS011;9726;52.198;8.792;2024-01-15T03:06:13;11.37;;;2.80;;
19187;SDS011;9726;52.198;8.792;2024-01-15T03:08:41;8.57;;;2.23;;
19187;SDS011;9726;52.198;8.792;2024-01-15T03:11:08;9.63;;;2.50;;
19187;SDS011;9726;52.198;8.792;2024-01-15T03:13:36;15.67;;;4.13;;
19187;SDS011;9726;52.198;8.792;2024-01-15T03:16:04;14.23;;;3.30;;
19187;SDS011;9726;52.198;8.792;2024-01-15T03:18:32;12.57;;;2.90;;
19187;SDS011;9726;52.198;8.792;2024-01-15T03:21:00;8.80;;;2.30;;
19187;SDS011;9726;52.198;8.792;2024-01-15T03:23:28;12.07;;;2.07;;
19187;SDS011;9726;52.198;8.792;2024-01-15T03:25:55;14.03;;;2.73;;
19187;SDS011;9726;52.198;8.792;2024-01-15T03:28:22;13.40;;;4.13;;
19187;SDS011;9726;52.198;8.792;2024-01-15T03:30:50;7.97;;;2.90;;
19187;SDS011;9726;52.198;8.792;2024-01-15T03:33:18;10.53;;;2.50;;
19187;SDS011;9726;52.198;8.792;2024-01-15T03:35:45;12.13;;;3.23;;
19187;SDS011;9726;52.198;8.792;2024-01-15T03:38:13;10.87;;;3.17;;
19187;SDS011;9726;52.198;8.792;2024-01-15T03:40:40;9.37;;;2.70;;
19187;SDS011;9726;52.198;8.792;2024-01-15T03:43:08;11.17;;;3.17;;
19187;SDS011;9726;52.198;8.792;2024-01-15T03:45:36;10.40;;;3.53;;
19187;SDS011;9726;52.198;8.792;2024-01-15T03:48:03;19.27;;;3.47;;
19187;SDS011;9726;52.198;8.792;2024-01-15T03:50:31;11.27;;;3.43;;
19187;SDS011;9726;52.198;8.792;2024-01-15T03:52:59;21.20;;;4.83;;
19187;SDS011;9726;52.198;8.792;2024-01-15T03:55:26;17.10;;;3.67;;
19187;SDS011;9726;52.198;8.792;2024-01-15T03:57:53;12.37;;;4.57;;
19187;SDS011;9726;52.198;8.792;2024-01-15T04:00:21;9.90;;;2.87;;
19187;SDS011;9726;52.198;8.792;2024-01-15T04:02:49;11.00;;;4.50;;
19187;SDS011;9726;52.198;8.792;2024-01-15T04:05:17;16.93;;;3.47;;
19187;SDS011;9726;52.198;8.792;2024-01-15T04:07:44;18.63;;;4.63;;
19187;SDS011;9726;52.198;8.792;2024-01-15T04:10:12;10.03;;;3.53;;
19187;SDS011;9726;52.198;8.792;2024-01-15T04:12:39;14.77;;;4.23;;
19187;SDS011;9726;52.198;8.792;2024-01-15T04:15:07;19.57;;;5.13;;
19187;SDS011;9726;52.198;8.792;2024-01-15T04:17:35;22.70;;;4.83;;
19187;SDS011;9726;52.198;8.792;2024-01-15T04:20:03;22.77;;;4.90;;
19187;SDS011;9726;52.198;8.792;2024-01-15T04:22:30;14.27;;;5.13;;
19187;SDS011;9726;52.198;8.792;2024-01-15T04:24:58;16.43;;;5.27;;
19187;SDS011;9726;52.198;8.792;2024-01-15T04:27:25;16.47;;;4.77;;
19187;SDS011;9726;52.198;8.792;2024-01-15T04:29:53;11.80;;;3.03;;
19187;SDS011;9726;52.198;8.792;2024-01-15T04:32:21;22.07;;;4.57;;
19187;SDS011;9726;52.198;8.792;2024-01-15T04:34:48;8.30;;;3.40;;
19187;SDS011;9726;52.198;8.792;2024-01-15T04:37:16;13.50;;;5.37;;
19187;SDS011;9726;52.198;8.792;2024-01-15T04:39:43;12.23;;;4.20;;
19187;SDS011;9726;52.198;8.792;2024-01-15T04:42:11;33.57;;;4.53;;
19187;SDS011;9726;52.198;8.792;2024-01-15T04:44:38;13.03;;;4.60;;
19187;SDS011;9726;52.198;8.792;2024-01-15T04:47:06;18.80;;;3.93;;
19187;SDS011;9726;52.198;8.792;2024-01-15T04:49:33;10.73;;;3.63;;
19187;SDS011;9726;52.198;8.792;2024-01-15T04:52:01;8.67;;;2.93;;
19187;SDS011;9726;52.198;8.792;2024-01-15T04:54:28;23.83;;;4.03;;
19187;SDS011;9726;52.198;8.792;2024-01-15T04:56:56;9.03;;;2.50;;
19187;SDS011;9726;52.198;8.792;2024-01-15T04:59:23;6.60;;;2.27;;
19187;SDS011;9726;52.198;8.792;2024-01-15T05:01:51;17.27;;;3.70;;
19187;SDS011;9726;52.198;8.792;2024-01-15T05:04:18;16.43;;;4.67;;
19187;SDS011;9726;52.198;8.792;2024-01-15T05:06:46;13.87;;;3.90;;
19187;SDS011;9726;52.198;8.792;2024-01-15T05:09:13;11.27;;;3.00;;
19187;SDS011;9726;52.198;8.792;2024-01-15T05:11:41;24.57;;;5.43;;
19187;SDS011;9726;52.198;8.792;2024-01-15T05:14:09;21.20;;;3.00;;
19187;SDS011;9726;52.198;8.792;2024-01-15T05:16:39;5.30;;;2.33;;
19187;SDS011;9726;52.198;8.792;2024-01-15T05:19:07;12.20;;;2.30;;
19187;SDS011;9726;52.198;8.792;2024-01-15T05:21:35;29.10;;;2.53;;
19187;SDS011;9726;52.198;8.792;2024-01-15T05:24:03;7.27;;;2.80;;
19187;SDS011;9726;52.198;8.792;2024-01-15T05:26:31;20.67;;;2.90;;
19187;SDS011;9726;52.198;8.792;2024-01-15T05:28:58;13.47;;;2.50;;
19187;SDS011;9726;52.198;8.792;2024-01-15T05:31:26;14.63;;;3.37;;
19187;SDS011;9726;52.198;8.792;2024-01-15T05:33:54;8.47;;;3.03;;
19187;SDS011;9726;52.198;8.792;2024-01-15T05:36:21;4.87;;;2.17;;
19187;SDS011;9726;52.198;8.792;2024-01-15T05:38:49;7.17;;;2.43;;
19187;SDS011;9726;52.198;8.792;2024-01-15T05:41:17;10.20;;;3.30;;
19187;SDS011;9726;52.198;8.792;2024-01-15T05:43:51;9.27;;;2.93;;
19187;SDS011;9726;52.198;8.792;2024-01-15T05:46:19;8.07;;;2.83;;
19187;SDS011;9726;52.198;8.792;2024-01-15T05:48:47;10.83;;;2.87;;
19187;SDS011;9726;52.198;8.792;2024-01-15T05:51:14;18.20;;;3.33;;
19187;SDS011;9726;52.198;8.792;2024-01-15T05:53:42;14.50;;;4.00;;
19187;SDS011;9726;52.198;8.792;2024-01-15T05:56:11;10.27;;;2.53;;
19187;SDS011;9726;52.198;8.792;2024-01-15T05:58:38;16.17;;;3.43;;
19187;SDS011;9726;52.198;8.792;2024-01-15T06:01:05;13.53;;;2.97;;
19187;SDS011;9726;52.198;8.792;2024-01-15T06:03:33;11.87;;;2.40;;
19187;SDS011;9726;52.198;8.792;2024-01-15T06:06:01;7.47;;;3.33;;
19187;SDS011;9726;52.198;8.792;2024-01-15T06:08:29;6.53;;;2.17;;
19187;SDS011;9726;52.198;8.792;2024-01-15T06:10:57;20.13;;;4.27;;
19187;SDS011;9726;52.198;8.792;2024-01-15T06:13:27;14.27;;;3.07;;
19187;SDS011;9726;52.198;8.792;2024-01-15T06:15:55;10.27;;;3.30;;
19187;SDS011;9726;52.198;8.792;2024-01-15T06:18:23;10.63;;;3.10;;
19187;SDS011;9726;52.198;8.792;2024-01-15T06:20:51;12.27;;;2.77;;
19187;SDS011;9726;52.198;8.792;2024-01-15T06:23:19;13.43;;;3.63;;
19187;SDS011;9726;52.198;8.792;2024-01-15T06:25:47;14.80;;;2.97;;
19187;SDS011;9726;52.198;8.792;2024-01-15T06:28:15;13.07;;;2.40;;
19187;SDS011;9726;52.198;8.792;2024-01-15T06:30:42;13.13;;;3.57;;
19187;SDS011;9726;52.198;8.792;2024-01-15T06:33:10;13.70;;;3.43;;
19187;SDS011;9726;52.198;8.792;2024-01-15T06:35:37;6.43;;;2.90;;
19187;SDS011;9726;52.198;8.792;2024-01-15T06:38:05;6.83;;;2.03;;
19187;SDS011;9726;52.198;8.792;2024-01-15T06:40:32;9.03;;;2.40;;
19187;SDS011;9726;52.198;8.792;2024-01-15T06:43:00;4.67;;;2.13;;
19187;SDS011;9726;52.198;8.792;2024-01-15T06:45:27;8.43;;;1.90;;
19187;SDS011;9726;52.198;8.792;2024-01-15T06:47:55;6.37;;;1.70;;
19187;SDS011;9726;52.198;8.792;2024-01-15T06:50:23;14.83;;;3.27;;
19187;SDS011;9726;52.198;8.792;2024-01-15T06:52:51;11.90;;;2.97;;
19187;SDS011;9726;52.198;8.792;2024-01-15T06:55:18;7.37;;;2.23;;
19187;SDS011;9726;52.198;8.792;2024-01-15T06:57:45;7.73;;;2.60;;
19187;SDS011;9726;52.198;8.792;2024-01-15T07:00:13;5.83;;;2.57;;
19187;SDS011;9726;52.198;8.792;2024-01-15T07:02:41;10.83;;;2.33;;
19187;SDS011;9726;52.198;8.792;2024-01-15T07:05:08;13.40;;;3.10;;
19187;SDS011;9726;52.198;8.792;2024-01-15T07:07:36;15.30;;;2.73;;
19187;SDS011;9726;52.198;8.792;2024-01-15T07:10:04;14.23;;;2.90;;
19187;SDS011;9726;52.198;8.792;2024-01-15T07:12:32;6.83;;;3.00;;
19187;SDS011;9726;52.198;8.792;2024-01-15T07:15:00;13.10;;;3.87;;
19187;SDS011;9726;52.198;8.792;2024-01-15T07:17:28;4.07;;;2.63;;
19187;SDS011;9726;52.198;8.792;2024-01-15T07:19:57;10.30;;;3.20;;
19187;SDS011;9726;52.198;8.792;2024-01-15T07:22:25;26.80;;;4.20;;
19187;SDS011;9726;52.198;8.792;2024-01-15T07:24:52;27.17;;;4.17;;
19187;SDS011;9726;52.198;8.792;2024-01-15T07:27:21;9.50;;;2.83;;
19187;SDS011;9726;52.198;8.792;2024-01-15T07:29:48;12.03;;;3.37;;
19187;SDS011;9726;52.198;8.792;2024-01-15T07:32:16;8.27;;;2.60;;
19187;SDS011;9726;52.198;8.792;2024-01-15T07:34:45;9.10;;;3.37;;
19187;SDS011;9726;52.198;8.792;2024-01-15T07:37:13;6.43;;;2.67;;
19187;SDS011;9726;52.198;8.792;2024-01-15T07:39:40;16.10;;;3.07;;
19187;SDS011;9726;52.198;8.792;2024-01-15T07:42:11;6.27;;;3.20;;
19187;SDS011;9726;52.198;8.792;2024-01-15T07:44:39;7.10;;;2.90;;
19187;SDS011;9726;52.198;8.792;2024-01-15T07:47:07;5.97;;;3.00;;
19187;SDS011;9726;52.198;8.792;2024-01-15T07:49:35;6.50;;;2.37;;
19187;SDS011;9726;52.198;8.792;2024-01-15T07:52:03;5.47;;;3.03;;
19187;SDS011;9726;52.198;8.792;2024-01-15T07:54:37;10.83;;;3.50;;
19187;SDS011;9726;52.198;8.792;2024-01-15T07:57:14;18.10;;;3.50;;
19187;SDS011;9726;52.198;8.792;2024-01-15T07:59:52;7.40;;;2.90;;
19187;SDS011;9726;52.198;8.792;2024-01-15T08:02:20;20.33;;;3.10;;
19187;SDS011;9726;52.198;8.792;2024-01-15T08:04:48;9.30;;;3.67;;
19187;SDS011;9726;52.198;8.792;2024-01-15T08:07:16;10.90;;;3.27;;
19187;SDS011;9726;52.198;8.792;2024-01-15T08:09:44;5.67;;;2.90;;
19187;SDS011;9726;52.198;8.792;2024-01-15T08:12:14;13.23;;;3.33;;
19187;SDS011;9726;52.198;8.792;2024-01-15T08:14:42;23.23;;;4.03;;
19187;SDS011;9726;52.198;8.792;2024-01-15T08:17:10;6.10;;;3.13;;
19187;SDS011;9726;52.198;8.792;2024-01-15T08:19:37;16.63;;;3.47;;
19187;SDS011;9726;52.198;8.792;2024-01-15T08:22:13;6.60;;;2.60;;
19187;SDS011;9726;52.198;8.792;2024-01-15T08:25:05;7.70;;;2.70;;
19187;SDS011;9726;52.198;8.792;2024-01-15T08:27:32;9.17;;;2.67;;
19187;SDS011;9726;52.198;8.792;2024-01-15T08:30:00;10.00;;;3.70;;
19187;SDS011;9726;52.198;8.792;2024-01-15T08:32:27;12.40;;;2.87;;
19187;SDS011;9726;52.198;8.792;2024-01-15T08:34:55;13.87;;;3.03;;
19187;SDS011;9726;52.198;8.792;2024-01-15T08:37:22;12.27;;;2.37;;
19187;SDS011;9726;52.198;8.792;2024-01-15T08:39:50;12.00;;;3.73;;
19187;SDS011;9726;52.198;8.792;2024-01-15T08:42:18;8.17;;;2.83;;
19187;SDS011;9726;52.198;8.792;2024-01-15T08:44:45;5.67;;;2.70;;
19187;SDS011;9726;52.198;8.792;2024-01-15T08:47:13;10.33;;;2.50;;
19187;SDS011;9726;52.198;8.792;2024-01-15T08:49:41;10.63;;;2.97;;
19187;SDS011;9726;52.198;8.792;2024-01-15T08:52:09;20.70;;;3.07;;
19187;SDS011;9726;52.198;8.792;2024-01-15T08:54:37;10.13;;;2.50;;
19187;SDS011;9726;52.198;8.792;2024-01-15T08:57:04;6.07;;;2.50;;
19187;SDS011;9726;52.198;8.792;2024-01-15T08:59:32;6.20;;;2.37;;
19187;SDS011;9726;52.198;8.792;2024-01-15T09:01:59;5.93;;;3.20;;
19187;SDS011;9726;52.198;8.792;2024-01-15T09:04:27;13.73;;;2.63;;
19187;SDS011;9726;52.198;8.792;2024-01-15T09:06:54;8.70;;;2.10;;
19187;SDS011;9726;52.198;8.792;2024-01-15T09:09:22;5.53;;;1.90;;
19187;SDS011;9726;52.198;8.792;2024-01-15T09:11:51;11.37;;;3.07;;
19187;SDS011;9726;52.198;8.792;2024-01-15T09:14:18;7.67;;;2.87;;
19187;SDS011;9726;52.198;8.792;2024-01-15T09:17:03;6.03;;;1.80;;
19187;SDS011;9726;52.198;8.792;2024-01-15T09:19:31;8.70;;;2.60;;
19187;SDS011;9726;52.198;8.792;2024-01-15T09:21:59;6.27;;;2.57;;
19187;SDS011;9726;52.198;8.792;2024-01-15T09:24:26;2.63;;;1.30;;
19187;SDS011;9726;52.198;8.792;2024-01-15T09:26:55;4.17;;;2.23;;
19187;SDS011;9726;52.198;8.792;2024-01-15T09:29:22;5.23;;;2.27;;
19187;SDS011;9726;52.198;8.792;2024-01-15T09:31:51;6.83;;;2.53;;
19187;SDS011;9726;52.198;8.792;2024-01-15T09:34:19;6.87;;;3.33;;
19187;SDS011;9726;52.198;8.792;2024-01-15T09:36:47;3.10;;;2.80;;
19187;SDS011;9726;52.198;8.792;2024-01-15T09:39:15;4.87;;;3.67;;
19187;SDS011;9726;52.198;8.792;2024-01-15T09:41:43;6.00;;;3.57;;
19187;SDS011;9726;52.198;8.792;2024-01-15T09:44:10;5.40;;;3.20;;
19187;SDS011;9726;52.198;8.792;2024-01-15T09:46:39;7.60;;;3.23;;
19187;SDS011;9726;52.198;8.792;2024-01-15T09:49:07;5.60;;;3.43;;
19187;SDS011;9726;52.198;8.792;2024-01-15T09:51:35;3.60;;;3.30;;
19187;SDS011;9726;52.198;8.792;2024-01-15T09:54:03;4.30;;;2.80;;
19187;SDS011;9726;52.198;8.792;2024-01-15T09:56:30;8.40;;;3.43;;
19187;SDS011;9726;52.198;8.792;2024-01-15T09:58:58;6.60;;;3.57;;
19187;SDS011;9726;52.198;8.792;2024-01-15T10:01:26;8.00;;;3.80;;
19187;SDS011;9726;52.198;8.792;2024-01-15T10:03:54;14.77;;;4.27;;
19187;SDS011;9726;52.198;8.792;2024-01-15T10:06:22;6.00;;;3.40;;
19187;SDS011;9726;52.198;8.792;2024-01-15T10:08:50;8.50;;;4.00;;
19187;SDS011;9726;52.198;8.792;2024-01-15T10:11:18;12.67;;;4.20;;
19187;SDS011;9726;52.198;8.792;2024-01-15T10:13:46;28.27;;;5.60;;
19187;SDS011;9726;52.198;8.792;2024-01-15T10:16:19;15.73;;;4.13;;
19187;SDS011;9726;52.198;8.792;2024-01-15T10:18:49;11.10;;;4.00;;
19187;SDS011;9726;52.198;8.792;2024-01-15T10:21:17;22.63;;;5.00;;
19187;SDS011;9726;52.198;8.792;2024-01-15T10:23:44;17.60;;;5.33;;
19187;SDS011;9726;52.198;8.792;2024-01-15T10:26:12;13.70;;;5.03;;
19187;SDS011;9726;52.198;8.792;2024-01-15T10:28:43;11.30;;;4.00;;
19187;SDS011;9726;52.198;8.792;2024-01-15T10:31:10;9.20;;;3.50;;
19187;SDS011;9726;52.198;8.792;2024-01-15T10:33:38;19.90;;;3.43;;
19187;SDS011;9726;52.198;8.792;2024-01-15T10:36:06;22.97;;;4.73;;
19187;SDS011;9726;52.198;8.792;2024-01-15T10:38:38;10.00;;;3.73;;
19187;SDS011;9726;52.198;8.792;2024-01-15T10:41:06;18.40;;;4.43;;
19187;SDS011;9726;52.198;8.792;2024-01-15T10:43:33;8.30;;;3.47;;
19187;SDS011;9726;52.198;8.792;2024-01-15T10:46:01;13.10;;;4.70;;
19187;SDS011;9726;52.198;8.792;2024-01-15T10:48:29;11.70;;;4.13;;
19187;SDS011;9726;52.198;8.792;2024-01-15T10:51:02;14.60;;;4.67;;
19187;SDS011;9726;52.198;8.792;2024-01-15T10:53:38;12.57;;;3.60;;
19187;SDS011;9726;52.198;8.792;2024-01-15T10:56:09;18.20;;;4.67;;
19187;SDS011;9726;52.198;8.792;2024-01-15T10:58:37;15.80;;;3.37;;
19187;SDS011;9726;52.198;8.792;2024-01-15T11:01:07;9.27;;;2.77;;
19187;SDS011;9726;52.198;8.792;2024-01-15T11:03:35;6.73;;;2.40;;
19187;SDS011;9726;52.198;8.792;2024-01-15T11:06:03;13.57;;;2.40;;
19187;SDS011;9726;52.198;8.792;2024-01-15T11:08:44;12.73;;;3.67;;
19187;SDS011;9726;52.198;8.792;2024-01-15T11:11:12;16.07;;;3.87;;
19187;SDS011;9726;52.198;8.792;2024-01-15T11:13:40;8.03;;;2.40;;
19187;SDS011;9726;52.198;8.792;2024-01-15T11:16:13;11.33;;;3.30;;
19187;SDS011;9726;52.198;8.792;2024-01-15T11:21:24;5.70;;;2.53;;
19187;SDS011;9726;52.198;8.792;2024-01-15T11:23:59;8.43;;;2.77;;
19187;SDS011;9726;52.198;8.792;2024-01-15T11:26:28;15.40;;;3.57;;
19187;SDS011;9726;52.198;8.792;2024-01-15T11:28:55;14.37;;;4.00;;
19187;SDS011;9726;52.198;8.792;2024-01-15T11:31:58;5.90;;;3.10;;
19187;SDS011;9726;52.198;8.792;2024-01-15T11:34:18;13.13;;;3.13;;
19187;SDS011;9726;52.198;8.792;2024-01-15T11:42:00;10.70;;;2.73;;
19187;SDS011;9726;52.198;8.792;2024-01-15T11:44:28;11.20;;;3.07;;
19187;SDS011;9726;52.198;8.792;2024-01-15T11:47:03;12.63;;;3.80;;
19187;SDS011;9726;52.198;8.792;2024-01-15T11:52:01;11.27;;;2.70;;
19187;SDS011;9726;52.198;8.792;2024-01-15T11:54:29;15.03;;;2.97;;
19187;SDS011;9726;52.198;8.792;2024-01-15T11:57:00;12.97;;;2.97;;
19187;SDS011;9726;52.198;8.792;2024-01-15T11:59:31;8.83;;;2.83;;
19187;SDS011;9726;52.198;8.792;2024-01-15T12:01:58;14.00;;;2.90;;
19187;SDS011;9726;52.198;8.792;2024-01-15T12:04:27;11.87;;;2.47;;
19187;SDS011;9726;52.198;8.792;2024-01-15T12:06:54;8.40;;;2.90;;
19187;SDS011;9726;52.198;8.792;2024-01-15T12:09:22;10.37;;;2.40;;
19187;SDS011;9726;52.198;8.792;2024-01-15T12:11:51;9.17;;;2.70;;
19187;SDS011;9726;52.198;8.792;2024-01-15T12:14:21;9.27;;;3.13;;
19187;SDS011;9726;52.198;8.792;2024-01-15T12:16:49;17.20;;;2.53;;
19187;SDS011;9726;52.198;8.792;2024-01-15T12:19:16;8.90;;;2.13;;
19187;SDS011;9726;52.198;8.792;2024-01-15T12:21:44;7.00;;;2.90;;
19187;SDS011;9726;52.198;8.792;2024-01-15T12:24:12;7.57;;;2.43;;
19187;SDS011;9726;52.198;8.792;2024-01-15T12:26:39;2.63;;;2.00;;
19187;SDS011;9726;52.198;8.792;2024-01-15T12:29:07;9.80;;;2.87;;
19187;SDS011;9726;52.198;8.792;2024-01-15T12:31:34;5.37;;;1.67;;
19187;SDS011;9726;52.198;8.792;2024-01-15T12:34:05;10.33;;;2.30;;
19187;SDS011;9726;52.198;8.792;2024-01-15T12:36:33;6.70;;;2.87;;
19187;SDS011;9726;52.198;8.792;2024-01-15T12:39:01;11.13;;;2.40;;
19187;SDS011;9726;52.198;8.792;2024-01-15T12:41:28;10.53;;;3.07;;
19187;SDS011;9726;52.198;8.792;2024-01-15T12:43:56;13.10;;;3.17;;
19187;SDS011;9726;52.198;8.792;2024-01-15T12:46:23;8.47;;;2.43;;
19187;SDS011;9726;52.198;8.792;2024-01-15T12:48:51;4.87;;;2.47;;
19187;SDS011;9726;52.198;8.792;2024-01-15T12:51:18;14.23;;;3.47;;
19187;SDS011;9726;52.198;8.792;2024-01-15T12:53:51;9.77;;;2.77;;
19187;SDS011;9726;52.198;8.792;2024-01-15T12:56:19;9.53;;;2.83;;
19187;SDS011;9726;52.198;8.792;2024-01-15T12:58:46;10.67;;;3.20;;
19187;SDS011;9726;52.198;8.792;2024-01-15T13:01:14;7.47;;;2.30;;
19187;SDS011;9726;52.198;8.792;2024-01-15T13:03:42;3.93;;;2.87;;
19187;SDS011;9726;52.198;8.792;2024-01-15T13:06:09;5.17;;;2.20;;
19187;SDS011;9726;52.198;8.792;2024-01-15T13:08:37;7.77;;;2.53;;
19187;SDS011;9726;52.198;8.792;2024-01-15T13:11:05;4.77;;;1.90;;
19187;SDS011;9726;52.198;8.792;2024-01-15T13:13:32;15.90;;;2.90;;
19187;SDS011;9726;52.198;8.792;2024-01-15T13:16:00;4.57;;;2.57;;
19187;SDS011;9726;52.198;8.792;2024-01-15T13:18:28;8.13;;;2.87;;
19187;SDS011;9726;52.198;8.792;2024-01-15T13:20:57;4.27;;;2.17;;
19187;SDS011;9726;52.198;8.792;2024-01-15T13:23:25;11.10;;;2.67;;
19187;SDS011;9726;52.198;8.792;2024-01-15T13:25:53;7.73;;;2.40;;
19187;SDS011;9726;52.198;8.792;2024-01-15T13:28:21;19.70;;;3.97;;
19187;SDS011;9726;52.198;8.792;2024-01-15T13:30:50;6.43;;;2.87;;
19187;SDS011;9726;52.198;8.792;2024-01-15T13:33:18;8.77;;;2.13;;
19187;SDS011;9726;52.198;8.792;2024-01-15T13:35:45;13.93;;;2.57;;
19187;SDS011;9726;52.198;8.792;2024-01-15T13:38:16;11.63;;;3.07;;
19187;SDS011;9726;52.198;8.792;2024-01-15T13:40:44;6.13;;;2.13;;
19187;SDS011;9726;52.198;8.792;2024-01-15T13:43:12;11.50;;;3.17;;
19187;SDS011;9726;52.198;8.792;2024-01-15T13:45:41;3.60;;;1.93;;
19187;SDS011;9726;52.198;8.792;2024-01-15T13:48:08;13.73;;;2.50;;
19187;SDS011;9726;52.198;8.792;2024-01-15T13:50:36;5.10;;;2.80;;
19187;SDS011;9726;52.198;8.792;2024-01-15T13:53:04;3.73;;;2.23;;
19187;SDS011;9726;52.198;8.792;2024-01-15T13:55:32;4.70;;;2.10;;
19187;SDS011;9726;52.198;8.792;2024-01-15T13:57:59;12.77;;;2.93;;
19187;SDS011;9726;52.198;8.792;2024-01-15T14:00:28;21.17;;;3.60;;
19187;SDS011;9726;52.198;8.792;2024-01-15T14:02:55;4.87;;;2.27;;
19187;SDS011;9726;52.198;8.792;2024-01-15T14:05:24;9.50;;;2.97;;
19187;SDS011;9726;52.198;8.792;2024-01-15T14:07:53;5.00;;;2.97;;
19187;SDS011;9726;52.198;8.792;2024-01-15T14:10:21;5.80;;;2.93;;
19187;SDS011;9726;52.198;8.792;2024-01-15T14:12:49;13.13;;;3.23;;
19187;SDS011;9726;52.198;8.792;2024-01-15T14:15:17;9.43;;;3.40;;
19187;SDS011;9726;52.198;8.792;2024-01-15T14:17:50;2.50;;;1.37;;
19187;SDS011;9726;52.198;8.792;2024-01-15T14:20:21;8.80;;;3.10;;
19187;SDS011;9726;52.198;8.792;2024-01-15T14:22:52;8.53;;;2.33;;
19187;SDS011;9726;52.198;8.792;2024-01-15T14:25:23;9.63;;;3.30;;
19187;SDS011;9726;52.198;8.792;2024-01-15T14:27:53;11.77;;;3.10;;
19187;SDS011;9726;52.198;8.792;2024-01-15T14:30:22;6.73;;;2.07;;
19187;SDS011;9726;52.198;8.792;2024-01-15T14:32:52;9.13;;;2.40;;
19187;SDS011;9726;52.198;8.792;2024-01-15T14:35:24;6.33;;;2.20;;
19187;SDS011;9726;52.198;8.792;2024-01-15T14:37:57;5.17;;;2.30;;
19187;SDS011;9726;52.198;8.792;2024-01-15T14:40:27;6.83;;;2.87;;
19187;SDS011;9726;52.198;8.792;2024-01-15T14:42:58;5.57;;;2.97;;
19187;SDS011;9726;52.198;8.792;2024-01-15T14:45:25;3.63;;;2.77;;
19187;SDS011;9726;52.198;8.792;2024-01-15T14:47:54;4.93;;;2.93;;
19187;SDS011;9726;52.198;8.792;2024-01-15T14:50:24;11.67;;;2.57;;
19187;SDS011;9726;52.198;8.792;2024-01-15T14:52:53;6.73;;;2.93;;
19187;SDS011;9726;52.198;8.792;2024-01-15T14:55:26;4.13;;;3.73;;
19187;SDS011;9726;52.198;8.792;2024-01-15T14:58:05;5.40;;;3.00;;
19187;SDS011;9726;52.198;8.792;2024-01-15T15:00:37;6.17;;;2.87;;
19187;SDS011;9726;52.198;8.792;2024-01-15T15:03:05;6.57;;;2.70;;
19187;SDS011;9726;52.198;8.792;2024-01-15T15:05:33;23.33;;;3.03;;
19187;SDS011;9726;52.198;8.792;2024-01-15T15:08:00;7.30;;;3.27;;
19187;SDS011;9726;52.198;8.792;2024-01-15T15:10:29;6.43;;;4.00;;